sensor_id;sensor_type;location;lat;lon;timestamp;pressure;altitude;pressure_sealevel;temperature;humidity
35676;BME280;21790;42.668;23.298;2023-06-22T00:03:00;95108.59;;;25.89;45.09
35676;BME280;21790;42.668;23.298;2023-06-22T00:05:31;95124.19;;;26.03;45.05
35676;BME280;21790;42.668;23.298;2023-06-22T00:07:57;95102.19;;;25.68;45.02
35676;BME280;21790;42.668;23.298;2023-06-22T00:10:25;95079.13;;;25.64;44.49
35676;BME280;21790;42.668;23.298;2023-06-22T00:12:51;95096.91;;;25.93;44.20
35676;BME280;21790;42.668;23.298;2023-06-22T00:15:19;95091.72;;;26.04;43.61
35676;BME280;21790;42.668;23.298;2023-06-22T00:17:50;95103.25;;;26.06;43.94
35676;BME280;21790;42.668;23.298;2023-06-22T00:20:17;95086.97;;;25.99;44.04
35676;BME280;21790;42.668;23.298;2023-06-22T00:22:49;95113.88;;;26.13;43.80
35676;BME280;21790;42.668;23.298;2023-06-22T00:25:17;95102.38;;;26.19;43.73
35676;BME280;21790;42.668;23.298;2023-06-22T00:27:43;95076.75;;;25.96;43.13
35676;BME280;21790;42.668;23.298;2023-06-22T00:30:09;95070.41;;;25.82;43.79
35676;BME280;21790;42.668;23.298;2023-06-22T00:32:35;95074.41;;;25.87;43.92
35676;BME280;21790;42.668;23.298;2023-06-22T00:35:02;95067.56;;;25.82;43.45
35676;BME280;21790;42.668;23.298;2023-06-22T00:37:35;95076.69;;;25.68;44.07
35676;BME280;21790;42.668;23.298;2023-06-22T00:40:02;95067.41;;;25.88;44.17
35676;BME280;21790;42.668;23.298;2023-06-22T00:42:31;95065.22;;;25.94;43.71
35676;BME280;21790;42.668;23.298;2023-06-22T00:44:58;95059.06;;;25.82;43.96
35676;BME280;21790;42.668;23.298;2023-06-22T00:47:24;95070.47;;;25.90;44.18
35676;BME280;21790;42.668;23.298;2023-06-22T00:49:52;95067.63;;;25.69;45.18
35676;BME280;21790;42.668;23.298;2023-06-22T00:52:20;95074.13;;;25.77;44.89
35676;BME280;21790;42.668;23.298;2023-06-22T00:54:48;95075.84;;;25.80;45.09
35676;BME280;21790;42.668;23.298;2023-06-22T00:57:15;95087.75;;;25.79;44.80
35676;BME280;21790;42.668;23.298;2023-06-22T00:59:45;95081.97;;;25.64;45.00
35676;BME280;21790;42.668;23.298;2023-06-22T01:02:11;95069.38;;;25.72;44.63
35676;BME280;21790;42.668;23.298;2023-06-22T01:04:38;95089.25;;;25.59;45.44
35676;BME280;21790;42.668;23.298;2023-06-22T01:09:56;95112.19;;;25.69;44.95
35676;BME280;21790;42.668;23.298;2023-06-22T01:12:24;95085.03;;;25.53;45.19
35676;BME280;21790;42.668;23.298;2023-06-22T01:15:02;95099.97;;;25.74;45.37
35676;BME280;21790;42.668;23.298;2023-06-22T01:17:31;95076.22;;;25.56;45.57
35676;BME280;21790;42.668;23.298;2023-06-22T01:19:59;95083.44;;;25.65;45.67
35676;BME280;21790;42.668;23.298;2023-06-22T01:22:30;95084.97;;;25.66;45.59
35676;BME280;21790;42.668;23.298;2023-06-22T01:25:12;95101.69;;;25.77;45.47
35676;BME280;21790;42.668;23.298;2023-06-22T01:28:03;95108.19;;;25.85;45.13
35676;BME280;21790;42.668;23.298;2023-06-22T01:30:33;95091.53;;;25.61;45.33
35676;BME280;21790;42.668;23.298;2023-06-22T01:35:40;95104.63;;;25.51;44.67
35676;BME280;21790;42.668;23.298;2023-06-22T01:38:09;95101.84;;;25.37;44.90
35676;BME280;21790;42.668;23.298;2023-06-22T01:40:36;95093.66;;;25.47;45.49
35676;BME280;21790;42.668;23.298;2023-06-22T01:43:03;95119.44;;;25.57;45.51
35676;BME280;21790;42.668;23.298;2023-06-22T01:45:30;95100.34;;;25.36;45.75
35676;BME280;21790;42.668;23.298;2023-06-22T01:47:56;95103.56;;;25.40;45.87
35676;BME280;21790;42.668;23.298;2023-06-22T01:50:22;95111.34;;;25.27;46.28
35676;BME280;21790;42.668;23.298;2023-06-22T01:52:48;95131.66;;;25.38;46.15
35676;BME280;21790;42.668;23.298;2023-06-22T01:55:14;95109.09;;;25.12;46.07
35676;BME280;21790;42.668;23.298;2023-06-22T01:57:40;95129.50;;;25.31;45.69
35676;BME280;21790;42.668;23.298;2023-06-22T02:00:11;95105.03;;;25.21;45.85
35676;BME280;21790;42.668;23.298;2023-06-22T02:05:17;95100.09;;;25.14;46.23
35676;BME280;21790;42.668;23.298;2023-06-22T02:08:09;95123.75;;;25.24;46.35
35676;BME280;21790;42.668;23.298;2023-06-22T02:10:37;95128.75;;;25.31;46.36
35676;BME280;21790;42.668;23.298;2023-06-22T02:13:07;95123.50;;;25.35;46.12
35676;BME280;21790;42.668;23.298;2023-06-22T02:15:34;95122.97;;;25.36;46.38
35676;BME280;21790;42.668;23.298;2023-06-22T02:18:01;95118.63;;;25.35;46.59
35676;BME280;21790;42.668;23.298;2023-06-22T02:20:26;95101.94;;;25.11;47.06
35676;BME280;21790;42.668;23.298;2023-06-22T02:22:53;95104.13;;;25.05;47.40
35676;BME280;21790;42.668;23.298;2023-06-22T02:25:25;95130.13;;;25.37;46.77
35676;BME280;21790;42.668;23.298;2023-06-22T02:27:50;95134.53;;;25.59;46.37
35676;BME280;21790;42.668;23.298;2023-06-22T02:30:17;95131.25;;;25.34;46.84
35676;BME280;21790;42.668;23.298;2023-06-22T02:32:44;95122.34;;;25.30;47.34
35676;BME280;21790;42.668;23.298;2023-06-22T02:35:10;95123.78;;;25.45;46.74
35676;BME280;21790;42.668;23.298;2023-06-22T02:37:39;95128.47;;;25.42;46.75
35676;BME280;21790;42.668;23.298;2023-06-22T02:40:10;95129.41;;;25.24;46.93
35676;BME280;21790;42.668;23.298;2023-06-22T02:42:37;95134.19;;;25.29;47.11
35676;BME280;21790;42.668;23.298;2023-06-22T02:45:03;95133.78;;;25.25;47.11
35676;BME280;21790;42.668;23.298;2023-06-22T02:47:28;95124.09;;;25.20;47.09
35676;BME280;21790;42.668;23.298;2023-06-22T02:49:56;95131.50;;;25.23;46.78
35676;BME280;21790;42.668;23.298;2023-06-22T02:52:24;95127.78;;;25.28;46.30
35676;BME280;21790;42.668;23.298;2023-06-22T02:54:52;95129.50;;;25.31;46.10
35676;BME280;21790;42.668;23.298;2023-06-22T02:57:19;95136.09;;;25.13;46.88
35676;BME280;21790;42.668;23.298;2023-06-22T02:59:45;95135.09;;;25.11;46.73
35676;BME280;21790;42.668;23.298;2023-06-22T03:02:11;95139.81;;;25.08;46.46
35676;BME280;21790;42.668;23.298;2023-06-22T03:04:37;95138.69;;;25.11;46.73
35676;BME280;21790;42.668;23.298;2023-06-22T03:07:04;95129.75;;;25.20;46.71
35676;BME280;21790;42.668;23.298;2023-06-22T03:09:29;95136.56;;;24.91;47.30
35676;BME280;21790;42.668;23.298;2023-06-22T03:11:59;95148.28;;;25.08;46.59
35676;BME280;21790;42.668;23.298;2023-06-22T03:14:25;95146.34;;;25.03;46.87
35676;BME280;21790;42.668;23.298;2023-06-22T03:16:51;95148.41;;;25.03;46.46
35676;BME280;21790;42.668;23.298;2023-06-22T03:19:17;95158.50;;;24.85;46.60
35676;BME280;21790;42.668;23.298;2023-06-22T03:21:43;95162.63;;;24.84;46.60
35676;BME280;21790;42.668;23.298;2023-06-22T03:24:10;95171.56;;;24.75;46.87
35676;BME280;21790;42.668;23.298;2023-06-22T03:26:36;95166.69;;;24.88;47.13
35676;BME280;21790;42.668;23.298;2023-06-22T03:29:06;95164.50;;;24.94;46.76
35676;BME280;21790;42.668;23.298;2023-06-22T03:31:51;95164.66;;;25.36;47.08
35676;BME280;21790;42.668;23.298;2023-06-22T03:34:40;95156.78;;;25.76;45.73
35676;BME280;21790;42.668;23.298;2023-06-22T03:43:48;95181.19;;;26.00;44.69
35676;BME280;21790;42.668;23.298;2023-06-22T03:57:25;95200.72;;;25.90;45.70
35676;BME280;21790;42.668;23.298;2023-06-22T03:59:58;95190.63;;;25.81;46.00
35676;BME280;21790;42.668;23.298;2023-06-22T04:05:13;95185.97;;;25.71;46.05
35676;BME280;21790;42.668;23.298;2023-06-22T04:07:47;95190.00;;;25.75;46.26
35676;BME280;21790;42.668;23.298;2023-06-22T04:10:17;95178.97;;;25.85;45.68
35676;BME280;21790;42.668;23.298;2023-06-22T04:12:47;95180.53;;;25.73;45.84
35676;BME280;21790;42.668;23.298;2023-06-22T04:15:12;95178.84;;;25.91;45.36
35676;BME280;21790;42.668;23.298;2023-06-22T04:17:41;95176.41;;;25.95;46.00
35676;BME280;21790;42.668;23.298;2023-06-22T04:20:07;95170.06;;;26.02;45.67
35676;BME280;21790;42.668;23.298;2023-06-22T04:22:34;95158.38;;;26.05;45.34
35676;BME280;21790;42.668;23.298;2023-06-22T04:25:09;95162.81;;;25.93;45.57
35676;BME280;21790;42.668;23.298;2023-06-22T04:27:45;95153.53;;;26.13;45.34
35676;BME280;21790;42.668;23.298;2023-06-22T04:30:15;95152.84;;;26.20;45.63
35676;BME280;21790;42.668;23.298;2023-06-22T04:32:43;95157.06;;;26.27;45.00
35676;BME280;21790;42.668;23.298;2023-06-22T04:35:11;95151.38;;;26.48;45.32
35676;BME280;21790;42.668;23.298;2023-06-22T04:37:46;95163.25;;;26.75;44.81
35676;BME280;21790;42.668;23.298;2023-06-22T04:40:23;95164.84;;;26.83;44.73
35676;BME280;21790;42.668;23.298;2023-06-22T04:43:03;95166.22;;;26.90;44.53
35676;BME280;21790;42.668;23.298;2023-06-22T04:45:30;95162.09;;;26.98;44.20
35676;BME280;21790;42.668;23.298;2023-06-22T04:47:59;95169.94;;;27.13;43.20
35676;BME280;21790;42.668;23.298;2023-06-22T04:50:30;95158.78;;;27.15;43.21
35676;BME280;21790;42.668;23.298;2023-06-22T04:53:02;95180.81;;;26.94;43.94
35676;BME280;21790;42.668;23.298;2023-06-22T04:55:41;95172.00;;;26.84;43.51
35676;BME280;21790;42.668;23.298;2023-06-22T04:58:13;95185.59;;;27.06;43.84
35676;BME280;21790;42.668;23.298;2023-06-22T05:00:39;95177.75;;;27.28;43.72
35676;BME280;21790;42.668;23.298;2023-06-22T05:03:07;95185.53;;;27.35;43.33
35676;BME280;21790;42.668;23.298;2023-06-22T05:05:36;95177.63;;;27.41;43.40
35676;BME280;21790;42.668;23.298;2023-06-22T05:08:04;95175.63;;;27.64;43.42
35676;BME280;21790;42.668;23.298;2023-06-22T05:10:41;95177.19;;;27.88;42.96
35676;BME280;21790;42.668;23.298;2023-06-22T05:13:08;95176.84;;;27.92;42.67
35676;BME280;21790;42.668;23.298;2023-06-22T05:15:34;95181.94;;;28.01;42.06
35676;BME280;21790;42.668;23.298;2023-06-22T05:18:09;95180.28;;;28.20;41.75
35676;BME280;21790;42.668;23.298;2023-06-22T05:23:17;95169.72;;;28.36;41.94
35676;BME280;21790;42.668;23.298;2023-06-22T05:25:53;95182.97;;;28.41;41.94
35676;BME280;21790;42.668;23.298;2023-06-22T05:28:21;95185.22;;;28.50;41.84
35676;BME280;21790;42.668;23.298;2023-06-22T05:30:52;95182.94;;;28.64;41.73
35676;BME280;21790;42.668;23.298;2023-06-22T05:33:18;95179.94;;;28.39;42.03
35676;BME280;21790;42.668;23.298;2023-06-22T05:35:54;95183.69;;;28.64;41.45
35676;BME280;21790;42.668;23.298;2023-06-22T05:38:32;95187.88;;;28.79;41.05
35676;BME280;21790;42.668;23.298;2023-06-22T05:40:58;95199.25;;;28.86;40.77
35676;BME280;21790;42.668;23.298;2023-06-22T05:43:25;95207.00;;;28.93;40.51
35676;BME280;21790;42.668;23.298;2023-06-22T05:45:51;95198.47;;;28.93;40.75
35676;BME280;21790;42.668;23.298;2023-06-22T05:48:17;95210.41;;;29.07;40.82
35676;BME280;21790;42.668;23.298;2023-06-22T05:50:47;95209.09;;;29.00;40.42
35676;BME280;21790;42.668;23.298;2023-06-22T05:53:20;95211.38;;;29.02;40.39
35676;BME280;21790;42.668;23.298;2023-06-22T05:55:47;95216.09;;;29.07;40.45
35676;BME280;21790;42.668;23.298;2023-06-22T05:58:29;95204.94;;;28.86;40.79
35676;BME280;21790;42.668;23.298;2023-06-22T06:01:03;95214.81;;;28.78;41.15
35676;BME280;21790;42.668;23.298;2023-06-22T06:03:32;95209.69;;;28.68;40.75
35676;BME280;21790;42.668;23.298;2023-06-22T06:06:09;95212.34;;;28.51;41.21
35676;BME280;21790;42.668;23.298;2023-06-22T06:08:45;95211.97;;;28.47;40.91
35676;BME280;21790;42.668;23.298;2023-06-22T06:11:42;95200.41;;;28.45;40.89
35676;BME280;21790;42.668;23.298;2023-06-22T06:14:13;95191.25;;;28.69;40.69
35676;BME280;21790;42.668;23.298;2023-06-22T06:16:48;95191.66;;;28.89;40.70
35676;BME280;21790;42.668;23.298;2023-06-22T06:19:18;95195.03;;;29.02;40.16
35676;BME280;21790;42.668;23.298;2023-06-22T06:21:54;95193.69;;;29.11;40.72
35676;BME280;21790;42.668;23.298;2023-06-22T06:24:21;95185.88;;;29.19;40.17
35676;BME280;21790;42.668;23.298;2023-06-22T06:26:50;95187.56;;;29.37;39.98
35676;BME280;21790;42.668;23.298;2023-06-22T06:29:27;95185.41;;;29.53;39.57
35676;BME280;21790;42.668;23.298;2023-06-22T06:31:54;95192.06;;;29.56;39.80
35676;BME280;21790;42.668;23.298;2023-06-22T06:34:40;95200.50;;;29.78;39.62
35676;BME280;21790;42.668;23.298;2023-06-22T06:37:07;95187.09;;;29.96;40.04
35676;BME280;21790;42.668;23.298;2023-06-22T06:39:42;95185.03;;;30.21;39.57
35676;BME280;21790;42.668;23.298;2023-06-22T06:42:08;95184.28;;;30.21;39.09
35676;BME280;21790;42.668;23.298;2023-06-22T06:44:34;95186.38;;;30.20;38.95
35676;BME280;21790;42.668;23.298;2023-06-22T06:47:32;95172.19;;;30.38;38.63
35676;BME280;21790;42.668;23.298;2023-06-22T06:50:10;95178.50;;;30.28;38.67
35676;BME280;21790;42.668;23.298;2023-06-22T06:52:47;95172.94;;;30.38;38.22
35676;BME280;21790;42.668;23.298;2023-06-22T06:55:27;95162.53;;;30.33;39.11
35676;BME280;21790;42.668;23.298;2023-06-22T06:58:08;95168.34;;;30.43;39.16
35676;BME280;21790;42.668;23.298;2023-06-22T07:00:41;95168.00;;;30.63;39.10
35676;BME280;21790;42.668;23.298;2023-06-22T07:03:18;95160.88;;;30.89;38.79
35676;BME280;21790;42.668;23.298;2023-06-22T07:05:44;95155.88;;;30.97;38.98
35676;BME280;21790;42.668;23.298;2023-06-22T07:08:10;95163.16;;;30.91;38.45
35676;BME280;21790;42.668;23.298;2023-06-22T07:10:38;95165.50;;;31.02;38.46
35676;BME280;21790;42.668;23.298;2023-06-22T07:13:20;95159.09;;;31.19;38.19
35676;BME280;21790;42.668;23.298;2023-06-22T07:18:43;95161.56;;;31.32;38.49
35676;BME280;21790;42.668;23.298;2023-06-22T07:21:11;95166.78;;;31.43;37.77
35676;BME280;21790;42.668;23.298;2023-06-22T07:23:52;95168.03;;;31.49;37.90
35676;BME280;21790;42.668;23.298;2023-06-22T07:26:31;95166.09;;;31.69;37.14
35676;BME280;21790;42.668;23.298;2023-06-22T07:29:06;95163.31;;;31.79;37.47
35676;BME280;21790;42.668;23.298;2023-06-22T07:31:41;95165.44;;;31.88;37.76
35676;BME280;21790;42.668;23.298;2023-06-22T07:34:07;95168.03;;;31.93;38.40
35676;BME280;21790;42.668;23.298;2023-06-22T07:36:54;95162.09;;;32.09;36.83
35676;BME280;21790;42.668;23.298;2023-06-22T07:39:21;95166.53;;;31.92;36.67
35676;BME280;21790;42.668;23.298;2023-06-22T07:41:53;95173.66;;;32.01;36.66
35676;BME280;21790;42.668;23.298;2023-06-22T07:44:45;95175.00;;;32.27;37.13
35676;BME280;21790;42.668;23.298;2023-06-22T07:47:13;95172.59;;;32.23;37.05
35676;BME280;21790;42.668;23.298;2023-06-22T07:49:51;95173.09;;;32.39;37.23
35676;BME280;21790;42.668;23.298;2023-06-22T07:52:24;95175.41;;;32.50;36.39
35676;BME280;21790;42.668;23.298;2023-06-22T07:58:21;95167.09;;;32.45;36.96
35676;BME280;21790;42.668;23.298;2023-06-22T08:04:39;95166.03;;;32.40;37.00
35676;BME280;21790;42.668;23.298;2023-06-22T08:07:11;95159.38;;;32.37;36.79
35676;BME280;21790;42.668;23.298;2023-06-22T08:09:46;95156.72;;;32.49;36.90
35676;BME280;21790;42.668;23.298;2023-06-22T08:12:14;95153.59;;;32.64;37.36
35676;BME280;21790;42.668;23.298;2023-06-22T08:14:42;95159.22;;;32.72;37.44
35676;BME280;21790;42.668;23.298;2023-06-22T08:17:36;95153.06;;;32.75;36.85
35676;BME280;21790;42.668;23.298;2023-06-22T08:20:05;95138.22;;;32.14;37.08
35676;BME280;21790;42.668;23.298;2023-06-22T08:22:54;95149.00;;;32.42;37.29
35676;BME280;21790;42.668;23.298;2023-06-22T08:25:21;95135.00;;;32.10;38.38
35676;BME280;21790;42.668;23.298;2023-06-22T08:31:36;95138.31;;;32.33;38.15
35676;BME280;21790;42.668;23.298;2023-06-22T08:34:24;95139.38;;;32.47;37.48
35676;BME280;21790;42.668;23.298;2023-06-22T08:36:58;95142.59;;;32.61;37.54
35676;BME280;21790;42.668;23.298;2023-06-22T08:39:37;95139.94;;;32.72;38.33
35676;BME280;21790;42.668;23.298;2023-06-22T08:42:15;95133.03;;;32.85;37.22
35676;BME280;21790;42.668;23.298;2023-06-22T08:44:57;95135.00;;;32.83;36.06
35676;BME280;21790;42.668;23.298;2023-06-22T08:47:47;95150.66;;;33.01;36.20
35676;BME280;21790;42.668;23.298;2023-06-22T08:50:14;95148.88;;;33.05;36.21
35676;BME280;21790;42.668;23.298;2023-06-22T08:52:46;95146.03;;;33.25;36.18
35676;BME280;21790;42.668;23.298;2023-06-22T08:55:14;95143.94;;;33.25;35.83
35676;BME280;21790;42.668;23.298;2023-06-22T08:57:47;95140.19;;;33.32;36.02
35676;BME280;21790;42.668;23.298;2023-06-22T09:03:43;95115.13;;;33.42;35.04
35676;BME280;21790;42.668;23.298;2023-06-22T09:06:29;95124.91;;;33.58;34.86
35676;BME280;21790;42.668;23.298;2023-06-22T09:09:02;95121.56;;;33.72;35.08
35676;BME280;21790;42.668;23.298;2023-06-22T09:11:32;95113.28;;;33.56;34.95
35676;BME280;21790;42.668;23.298;2023-06-22T09:13:58;95123.25;;;33.55;34.26
35676;BME280;21790;42.668;23.298;2023-06-22T09:16:24;95114.94;;;33.50;33.21
35676;BME280;21790;42.668;23.298;2023-06-22T09:25:09;95127.03;;;33.48;33.60
35676;BME280;21790;42.668;23.298;2023-06-22T09:27:50;95128.25;;;33.55;33.94
35676;BME280;21790;42.668;23.298;2023-06-22T09:30:19;95115.41;;;33.56;32.97
35676;BME280;21790;42.668;23.298;2023-06-22T09:32:44;95129.41;;;33.61;33.62
35676;BME280;21790;42.668;23.298;2023-06-22T09:35:35;95136.50;;;33.80;32.75
35676;BME280;21790;42.668;23.298;2023-06-22T09:38:08;95126.38;;;33.88;32.90
35676;BME280;21790;42.668;23.298;2023-06-22T09:40:48;95124.34;;;34.10;32.48
35676;BME280;21790;42.668;23.298;2023-06-22T09:43:31;95141.56;;;34.20;31.97
35676;BME280;21790;42.668;23.298;2023-06-22T09:45:58;95126.72;;;34.23;31.58
35676;BME280;21790;42.668;23.298;2023-06-22T09:48:48;95130.97;;;34.22;30.82
35676;BME280;21790;42.668;23.298;2023-06-22T09:54:06;95132.59;;;34.16;31.67
35676;BME280;21790;42.668;23.298;2023-06-22T09:56:39;95111.03;;;34.24;31.61
35676;BME280;21790;42.668;23.298;2023-06-22T09:59:16;95119.91;;;34.28;31.49
35676;BME280;21790;42.668;23.298;2023-06-22T10:01:58;95120.53;;;34.17;30.43
35676;BME280;21790;42.668;23.298;2023-06-22T10:04:24;95114.25;;;34.09;31.09
35676;BME280;21790;42.668;23.298;2023-06-22T10:07:05;95108.47;;;34.19;31.24
35676;BME280;21790;42.668;23.298;2023-06-22T10:09:58;95113.28;;;34.26;31.79
35676;BME280;21790;42.668;23.298;2023-06-22T10:13:01;95106.13;;;33.96;31.98
35676;BME280;21790;42.668;23.298;2023-06-22T10:15:51;95106.19;;;33.77;32.09
35676;BME280;21790;42.668;23.298;2023-06-22T10:18:25;95104.97;;;33.60;31.69
35676;BME280;21790;42.668;23.298;2023-06-22T10:23:48;95102.13;;;34.11;31.59
35676;BME280;21790;42.668;23.298;2023-06-22T10:26:14;95106.66;;;34.23;32.15
35676;BME280;21790;42.668;23.298;2023-06-22T10:28:45;95099.97;;;33.90;32.35
35676;BME280;21790;42.668;23.298;2023-06-22T10:37:56;95098.03;;;34.23;32.20
35676;BME280;21790;42.668;23.298;2023-06-22T10:40:55;95089.06;;;33.98;32.00
35676;BME280;21790;42.668;23.298;2023-06-22T10:43:22;95081.72;;;33.85;31.49
35676;BME280;21790;42.668;23.298;2023-06-22T10:48:57;95081.00;;;33.56;31.67
35676;BME280;21790;42.668;23.298;2023-06-22T10:51:38;95073.66;;;33.34;31.96
35676;BME280;21790;42.668;23.298;2023-06-22T10:54:13;95068.41;;;33.30;32.08
35676;BME280;21790;42.668;23.298;2023-06-22T11:07:37;95072.63;;;33.10;31.43
35676;BME280;21790;42.668;23.298;2023-06-22T11:10:03;95068.09;;;33.26;31.21
35676;BME280;21790;42.668;23.298;2023-06-22T11:12:29;95072.19;;;33.33;31.08
35676;BME280;21790;42.668;23.298;2023-06-22T11:14:55;95070.34;;;33.08;30.95
35676;BME280;21790;42.668;23.298;2023-06-22T11:17:22;95062.81;;;33.42;31.26
35676;BME280;21790;42.668;23.298;2023-06-22T11:19:47;95062.50;;;33.38;31.78
35676;BME280;21790;42.668;23.298;2023-06-22T11:22:13;95049.06;;;33.40;31.59
35676;BME280;21790;42.668;23.298;2023-06-22T11:24:40;95059.22;;;33.22;31.53
35676;BME280;21790;42.668;23.298;2023-06-22T12:04:27;95044.44;;;33.26;33.94
35676;BME280;21790;42.668;23.298;2023-06-22T12:06:53;95050.47;;;33.10;35.58
35676;BME280;21790;42.668;23.298;2023-06-22T12:09:24;95052.56;;;33.10;35.23
35676;BME280;21790;42.668;23.298;2023-06-22T12:25:33;95058.91;;;32.89;36.23
35676;BME280;21790;42.668;23.298;2023-06-22T12:27:58;95058.13;;;32.69;37.54
35676;BME280;21790;42.668;23.298;2023-06-22T12:30:23;95056.59;;;32.49;38.80
35676;BME280;21790;42.668;23.298;2023-06-22T12:39:22;95085.66;;;32.09;40.69
35676;BME280;21790;42.668;23.298;2023-06-22T12:41:48;95087.16;;;32.10;40.20
35676;BME280;21790;42.668;23.298;2023-06-22T12:44:13;95081.41;;;32.01;41.52
35676;BME280;21790;42.668;23.298;2023-06-22T12:46:40;95089.13;;;31.81;42.50
35676;BME280;21790;42.668;23.298;2023-06-22T12:49:11;95092.19;;;31.39;41.98
35676;BME280;21790;42.668;23.298;2023-06-22T12:51:40;95097.84;;;30.95;43.11
35676;BME280;21790;42.668;23.298;2023-06-22T12:54:07;95101.47;;;31.12;42.75
35676;BME280;21790;42.668;23.298;2023-06-22T12:56:43;95103.88;;;31.33;42.40
35676;BME280;21790;42.668;23.298;2023-06-22T13:02:34;95110.34;;;31.34;41.91
35676;BME280;21790;42.668;23.298;2023-06-22T13:07:35;95108.19;;;30.90;42.74
35676;BME280;21790;42.668;23.298;2023-06-22T13:10:25;95119.47;;;29.97;43.58
35676;BME280;21790;42.668;23.298;2023-06-22T13:12:51;95111.16;;;29.91;43.69
35676;BME280;21790;42.668;23.298;2023-06-22T13:15:17;95114.31;;;30.45;42.66
35676;BME280;21790;42.668;23.298;2023-06-22T13:17:46;95122.53;;;29.91;43.34
35676;BME280;21790;42.668;23.298;2023-06-22T13:23:25;95133.34;;;30.67;42.76
35676;BME280;21790;42.668;23.298;2023-06-22T13:26:03;95117.56;;;30.66;41.48
35676;BME280;21790;42.668;23.298;2023-06-22T13:31:16;95110.53;;;31.01;41.13
35676;BME280;21790;42.668;23.298;2023-06-22T13:33:42;95104.81;;;31.01;40.83
35676;BME280;21790;42.668;23.298;2023-06-22T13:36:09;95087.19;;;30.95;41.28
35676;BME280;21790;42.668;23.298;2023-06-22T13:38:35;95094.09;;;31.09;40.88
35676;BME280;21790;42.668;23.298;2023-06-22T13:41:05;95092.38;;;30.89;40.89
35676;BME280;21790;42.668;23.298;2023-06-22T13:43:31;95084.28;;;31.03;40.40
35676;BME280;21790;42.668;23.298;2023-06-22T13:45:57;95081.56;;;31.05;40.37
35676;BME280;21790;42.668;23.298;2023-06-22T13:48:22;95090.81;;;31.13;40.22
35676;BME280;21790;42.668;23.298;2023-06-22T13:50:48;95082.91;;;31.21;40.63
35676;BME280;21790;42.668;23.298;2023-06-22T13:53:14;95080.38;;;31.25;42.46
35676;BME280;21790;42.668;23.298;2023-06-22T13:55:40;95076.28;;;31.19;44.75
35676;BME280;21790;42.668;23.298;2023-06-22T13:58:06;95073.25;;;31.16;45.15
35676;BME280;21790;42.668;23.298;2023-06-22T14:00:34;95078.97;;;31.16;44.42
35676;BME280;21790;42.668;23.298;2023-06-22T14:03:01;95080.16;;;31.13;44.15
35676;BME280;21790;42.668;23.298;2023-06-22T14:05:26;95084.94;;;31.11;44.34
35676;BME280;21790;42.668;23.298;2023-06-22T14:07:52;95085.59;;;31.19;43.78
35676;BME280;21790;42.668;23.298;2023-06-22T14:10:18;95092.41;;;31.24;44.07
35676;BME280;21790;42.668;23.298;2023-06-22T14:12:46;95089.16;;;31.37;43.63
35676;BME280;21790;42.668;23.298;2023-06-22T14:15:41;95088.75;;;31.40;43.07
35676;BME280;21790;42.668;23.298;2023-06-22T14:18:09;95085.34;;;31.25;43.12
35676;BME280;21790;42.668;23.298;2023-06-22T14:20:35;95099.19;;;31.28;44.00
35676;BME280;21790;42.668;23.298;2023-06-22T14:23:01;95102.31;;;31.05;43.92
35676;BME280;21790;42.668;23.298;2023-06-22T14:25:49;95114.56;;;31.15;44.75
35676;BME280;21790;42.668;23.298;2023-06-22T14:28:21;95122.28;;;31.23;42.65
35676;BME280;21790;42.668;23.298;2023-06-22T14:30:50;95124.97;;;31.21;42.96
35676;BME280;21790;42.668;23.298;2023-06-22T14:33:16;95112.06;;;31.20;44.20
35676;BME280;21790;42.668;23.298;2023-06-22T14:35:42;95108.44;;;31.19;44.02
35676;BME280;21790;42.668;23.298;2023-06-22T14:38:10;95113.63;;;30.96;43.63
35676;BME280;21790;42.668;23.298;2023-06-22T14:40:37;95100.44;;;30.83;44.25
35676;BME280;21790;42.668;23.298;2023-06-22T14:43:03;95115.47;;;30.84;43.20
35676;BME280;21790;42.668;23.298;2023-06-22T14:45:29;95103.66;;;30.87;44.33
35676;BME280;21790;42.668;23.298;2023-06-22T14:47:56;95102.91;;;30.87;45.10
35676;BME280;21790;42.668;23.298;2023-06-22T14:50:22;95103.16;;;30.81;44.32
35676;BME280;21790;42.668;23.298;2023-06-22T14:52:51;95108.19;;;30.90;44.08
35676;BME280;21790;42.668;23.298;2023-06-22T14:55:17;95104.63;;;30.99;44.37
35676;BME280;21790;42.668;23.298;2023-06-22T15:40:00;95064.97;;;31.38;42.64
35676;BME280;21790;42.668;23.298;2023-06-22T15:42:31;95065.06;;;31.47;42.50
35676;BME280;21790;42.668;23.298;2023-06-22T15:51:21;95072.16;;;31.56;41.38
35676;BME280;21790;42.668;23.298;2023-06-22T15:53:46;95073.09;;;31.59;41.58
35676;BME280;21790;42.668;23.298;2023-06-22T15:56:12;95056.94;;;31.53;41.32
35676;BME280;21790;42.668;23.298;2023-06-22T15:58:38;95058.91;;;31.51;41.44
35676;BME280;21790;42.668;23.298;2023-06-22T16:01:09;95054.69;;;31.52;41.19
35676;BME280;21790;42.668;23.298;2023-06-22T16:03:35;95061.22;;;31.35;41.48
35676;BME280;21790;42.668;23.298;2023-06-22T16:06:02;95061.19;;;31.08;42.16
35676;BME280;21790;42.668;23.298;2023-06-22T16:08:33;95083.16;;;30.98;42.24
35676;BME280;21790;42.668;23.298;2023-06-22T16:11:01;95065.38;;;30.90;42.34
35676;BME280;21790;42.668;23.298;2023-06-22T16:13:29;95073.75;;;30.88;42.14
35676;BME280;21790;42.668;23.298;2023-06-22T16:18:33;95085.09;;;31.13;42.33
35676;BME280;21790;42.668;23.298;2023-06-22T16:26:57;95091.13;;;31.17;42.30
35676;BME280;21790;42.668;23.298;2023-06-22T16:29:26;95085.44;;;31.17;42.67
35676;BME280;21790;42.668;23.298;2023-06-22T16:32:21;95086.00;;;31.15;42.93
35676;BME280;21790;42.668;23.298;2023-06-22T16:35:04;95067.97;;;31.13;43.15
35676;BME280;21790;42.668;23.298;2023-06-22T16:37:31;95081.22;;;31.18;42.88
35676;BME280;21790;42.668;23.298;2023-06-22T16:40:05;95076.78;;;31.25;42.74